createdAt,value
2018-05-16T00:00:35.143Z,0.00
2018-05-16T00:01:35.105Z,0.00
2018-05-16T00:02:35.090Z,0.00
2018-05-16T00:03:35.000Z,0.00
2018-05-16T00:04:34.963Z,0.00
2018-05-16T00:05:34.906Z,0.00
2018-05-16T00:06:34.855Z,0.00
2018-05-16T00:07:34.852Z,0.00
2018-05-16T00:08:34.763Z,0.00
2018-05-16T00:09:34.723Z,0.00
2018-05-16T00:10:34.664Z,0.00
2018-05-16T00:11:34.633Z,0.00
2018-05-16T00:12:34.607Z,0.00
2018-05-16T00:13:34.526Z,0.00
2018-05-16T00:14:34.519Z,0.00
2018-05-16T00:15:34.428Z,0.00
2018-05-16T00:16:34.394Z,0.00
2018-05-16T00:17:34.334Z,0.00
2018-05-16T00:18:34.283Z,0.00
2018-05-16T00:19:34.279Z,0.00
2018-05-16T00:20:34.189Z,0.00
2018-05-16T00:21:34.143Z,0.00
2018-05-16T00:22:34.092Z,0.00
2018-05-16T00:23:34.076Z,0.00
2018-05-16T00:24:33.998Z,0.00
2018-05-16T00:25:33.954Z,0.00
2018-05-16T00:26:33.908Z,0.00
2018-05-16T00:27:33.856Z,0.00
2018-05-16T00:28:33.845Z,0.00
2018-05-16T00:29:33.768Z,0.00
2018-05-16T00:30:33.710Z,0.00
2018-05-16T00:31:34.151Z,0.00
2018-05-16T00:32:33.618Z,0.00
2018-05-16T00:33:33.567Z,0.00
2018-05-16T00:34:33.524Z,0.00
2018-05-16T00:35:33.473Z,0.00
2018-05-16T00:36:33.465Z,0.00
2018-05-16T00:37:33.376Z,0.00
2018-05-16T00:38:33.332Z,0.00
2018-05-16T00:39:33.288Z,0.00
2018-05-16T00:40:33.236Z,0.00
2018-05-16T00:41:33.225Z,0.00
2018-05-16T00:42:33.176Z,0.00
2018-05-16T00:43:33.092Z,0.00
2018-05-16T00:44:33.043Z,0.00
2018-05-16T00:45:33.038Z,0.00
2018-05-16T00:46:32.984Z,0.00
2018-05-16T00:47:32.902Z,0.00
2018-05-16T00:48:32.851Z,0.00
2018-05-16T00:49:32.807Z,0.00
2018-05-16T00:50:32.807Z,0.00
2018-05-16T00:51:32.713Z,0.00
2018-05-16T00:52:32.670Z,0.00
2018-05-16T00:53:32.630Z,0.00
2018-05-16T00:54:32.566Z,0.00
2018-05-16T00:55:32.557Z,0.00
2018-05-16T00:56:32.470Z,0.00
2018-05-16T00:57:32.423Z,0.00
2018-05-16T00:58:32.406Z,0.00
2018-05-16T00:59:32.328Z,0.00
2018-05-16T01:00:32.282Z,0.00
2018-05-16T01:01:32.231Z,0.00
2018-05-16T01:02:32.215Z,0.00
2018-05-16T01:03:32.141Z,0.00
2018-05-16T01:04:32.088Z,0.00
2018-05-16T01:05:32.084Z,0.00
2018-05-16T01:06:32.037Z,0.00
2018-05-16T01:07:31.962Z,0.00
2018-05-16T01:08:31.901Z,0.00
2018-05-16T01:09:31.851Z,0.00
2018-05-16T01:10:31.817Z,0.00
2018-05-16T01:11:31.794Z,0.00
2018-05-16T01:12:31.740Z,0.00
2018-05-16T01:13:31.667Z,0.00
2018-05-16T01:14:31.613Z,0.00
2018-05-16T01:15:31.561Z,0.00
2018-05-16T01:16:31.558Z,0.00
2018-05-16T01:17:31.476Z,0.00
2018-05-16T01:18:31.421Z,0.00
2018-05-16T01:19:31.372Z,0.00
2018-05-16T01:20:31.328Z,0.00
2018-05-16T01:21:31.308Z,0.00
2018-05-16T01:22:31.229Z,0.00
2018-05-16T01:23:31.187Z,0.00
2018-05-16T01:24:31.133Z,0.00
2018-05-16T01:25:31.116Z,0.00
2018-05-16T01:26:31.036Z,0.00
2018-05-16T01:27:30.988Z,0.00
2018-05-16T01:28:30.974Z,0.00
2018-05-16T01:29:30.890Z,0.00
2018-05-16T01:30:30.849Z,0.00
2018-05-16T01:31:30.799Z,0.00
2018-05-16T01:32:30.749Z,0.00
2018-05-16T01:33:30.772Z,0.00
2018-05-16T01:34:30.652Z,0.00
2018-05-16T01:35:30.607Z,0.00
2018-05-16T01:36:30.559Z,0.00
2018-05-16T01:37:30.520Z,0.00
2018-05-16T01:38:30.495Z,0.00
2018-05-16T01:39:30.445Z,0.00
2018-05-16T01:40:30.372Z,0.00
2018-05-16T01:41:30.325Z,0.00
2018-05-16T01:42:30.271Z,0.00
2018-05-16T01:43:30.254Z,0.00
2018-05-16T01:44:30.221Z,0.00
2018-05-16T01:45:30.129Z,0.00
2018-05-16T01:46:30.079Z,0.00
2018-05-16T01:47:30.034Z,0.00
2018-05-16T01:48:29.983Z,0.00
2018-05-16T01:49:29.972Z,0.00
2018-05-16T01:50:29.888Z,0.00
2018-05-16T01:51:29.841Z,0.00
2018-05-16T01:52:29.791Z,0.00
2018-05-16T01:53:29.781Z,0.00
2018-05-16T01:54:29.710Z,0.00
2018-05-16T01:55:29.652Z,0.00
2018-05-16T01:56:29.598Z,0.00
2018-05-16T01:57:29.588Z,0.00
2018-05-16T01:58:29.516Z,0.00
2018-05-16T01:59:29.456Z,0.00
2018-05-16T02:00:29.408Z,0.00
2018-05-16T02:01:29.395Z,0.00
2018-05-16T02:02:29.312Z,0.00
2018-05-16T02:03:29.264Z,0.00
2018-05-16T02:04:29.221Z,0.00
2018-05-16T02:05:29.166Z,0.00
2018-05-16T02:06:29.151Z,0.00
2018-05-16T02:07:29.070Z,0.00
2018-05-16T02:08:29.023Z,0.00
2018-05-16T02:09:28.978Z,0.00
2018-05-16T02:10:28.953Z,0.00
2018-05-16T02:11:28.879Z,0.00
2018-05-16T02:12:28.866Z,0.00
2018-05-16T02:13:28.784Z,0.00
2018-05-16T02:14:28.771Z,0.00
2018-05-16T02:15:28.736Z,0.00
2018-05-16T02:16:28.641Z,0.00
2018-05-16T02:17:28.597Z,0.00
2018-05-16T02:18:28.544Z,0.00
2018-05-16T02:19:28.532Z,0.00
2018-05-16T02:20:28.449Z,0.00
2018-05-16T02:21:28.453Z,0.00
2018-05-16T02:22:28.353Z,0.00
2018-05-16T02:23:28.305Z,0.00
2018-05-16T02:24:28.306Z,0.00
2018-05-16T02:25:28.225Z,0.00
2018-05-16T02:26:28.161Z,0.00
2018-05-16T02:27:28.117Z,0.00
2018-05-16T02:28:28.067Z,0.00
2018-05-16T02:29:28.069Z,0.00
2018-05-16T02:30:27.972Z,0.00
2018-05-16T02:31:27.923Z,0.00
2018-05-16T02:32:27.881Z,0.00
2018-05-16T02:33:27.825Z,0.00
2018-05-16T02:34:27.821Z,0.00
2018-05-16T02:35:27.730Z,0.00
2018-05-16T02:36:27.686Z,0.00
2018-05-16T02:37:27.733Z,0.00
2018-05-16T02:38:27.584Z,0.00
2018-05-16T02:39:27.569Z,0.00
2018-05-16T02:40:27.510Z,0.00
2018-05-16T02:41:27.444Z,0.00
2018-05-16T02:42:27.397Z,0.00
2018-05-16T02:43:27.348Z,0.00
2018-05-16T02:44:27.349Z,0.00
2018-05-16T02:45:27.251Z,0.00
2018-05-16T02:46:27.201Z,0.00
2018-05-16T02:47:27.270Z,0.00
2018-05-16T02:48:27.106Z,0.00
2018-05-16T02:49:27.096Z,0.00
2018-05-16T02:50:27.042Z,0.00
2018-05-16T02:51:27.003Z,0.00
2018-05-16T02:52:26.914Z,0.00
2018-05-16T02:53:26.863Z,0.00
2018-05-16T02:54:26.909Z,0.00
2018-05-16T02:55:26.770Z,0.00
2018-05-16T02:56:26.755Z,0.00
2018-05-16T02:57:26.678Z,0.00
2018-05-16T02:58:26.665Z,0.00
2018-05-16T02:59:26.587Z,0.00
2018-05-16T03:00:26.533Z,0.00
2018-05-16T03:01:26.491Z,0.00
2018-05-16T03:02:26.434Z,0.00
2018-05-16T03:03:26.438Z,0.00
2018-05-16T03:04:26.345Z,0.00
2018-05-16T03:05:26.289Z,0.00
2018-05-16T03:06:26.246Z,0.00
2018-05-16T03:07:26.195Z,0.00
2018-05-16T03:08:26.194Z,0.00
2018-05-16T03:09:26.098Z,0.00
2018-05-16T03:10:26.049Z,0.00
2018-05-16T03:11:26.010Z,0.00
2018-05-16T03:12:25.957Z,0.00
2018-05-16T03:13:25.941Z,0.00
2018-05-16T03:14:25.894Z,0.00
2018-05-16T03:15:25.809Z,4.00
2018-05-16T03:16:25.794Z,0.00
2018-05-16T03:17:25.713Z,4.00
2018-05-16T03:18:25.668Z,0.00
2018-05-16T03:19:25.631Z,4.00
2018-05-16T03:20:25.571Z,4.00
2018-05-16T03:21:25.557Z,4.00
2018-05-16T03:22:25.477Z,4.00
2018-05-16T03:23:25.427Z,4.00
2018-05-16T03:24:25.376Z,8.00
2018-05-16T03:25:25.333Z,8.00
2018-05-16T03:26:25.324Z,8.00
2018-05-16T03:27:25.238Z,8.00
2018-05-16T03:28:25.191Z,12.00
2018-05-16T03:29:25.141Z,12.00
2018-05-16T03:30:25.091Z,12.00
2018-05-16T03:31:25.082Z,16.00
2018-05-16T03:32:24.996Z,16.00
2018-05-16T03:33:24.946Z,16.00
2018-05-16T03:34:24.899Z,20.00
2018-05-16T03:35:24.850Z,16.00
2018-05-16T03:36:24.838Z,20.00
2018-05-16T03:37:24.754Z,20.00
2018-05-16T03:38:24.737Z,24.00
2018-05-16T03:39:24.659Z,28.00
2018-05-16T03:40:24.647Z,32.00
2018-05-16T03:41:24.563Z,36.00
2018-05-16T03:42:24.517Z,36.00
2018-05-16T03:43:24.507Z,40.00
2018-05-16T03:44:24.422Z,36.00
2018-05-16T03:45:24.371Z,40.00
2018-05-16T03:46:24.321Z,40.00
2018-05-16T03:47:24.310Z,40.00
2018-05-16T03:48:24.231Z,36.00
2018-05-16T03:49:24.218Z,36.00
2018-05-16T03:50:24.131Z,32.00
2018-05-16T03:51:24.090Z,32.00
2018-05-16T03:52:24.035Z,32.00
2018-05-16T03:53:23.985Z,32.00
2018-05-16T03:54:23.977Z,32.00
2018-05-16T03:55:23.892Z,32.00
2018-05-16T03:56:23.844Z,32.00
2018-05-16T03:57:23.829Z,36.00
2018-05-16T03:58:23.750Z,36.00
2018-05-16T03:59:23.701Z,36.00
2018-05-16T04:00:23.679Z,44.00
2018-05-16T04:01:23.647Z,44.00
2018-05-16T04:02:23.577Z,52.00
2018-05-16T04:03:23.506Z,56.00
2018-05-16T04:04:23.460Z,60.00
2018-05-16T04:05:23.409Z,64.00
2018-05-16T04:06:23.399Z,76.00
2018-05-16T04:07:23.313Z,84.00
2018-05-16T04:08:23.270Z,96.00
2018-05-16T04:09:23.215Z,108.00
2018-05-16T04:10:23.169Z,124.00
2018-05-16T04:11:23.162Z,132.00
2018-05-16T04:12:23.073Z,140.00
2018-05-16T04:13:23.027Z,140.00
2018-05-16T04:14:22.982Z,128.00
2018-05-16T04:15:22.925Z,128.00
2018-05-16T04:16:22.918Z,128.00
2018-05-16T04:17:22.866Z,128.00
2018-05-16T04:18:22.784Z,128.00
2018-05-16T04:19:22.739Z,132.00
2018-05-16T04:20:22.688Z,128.00
2018-05-16T04:21:22.652Z,128.00
2018-05-16T04:22:22.627Z,124.00
2018-05-16T04:23:22.544Z,120.00
2018-05-16T04:24:22.496Z,112.00
2018-05-16T04:25:22.466Z,100.00
2018-05-16T04:26:22.452Z,104.00
2018-05-16T04:27:22.354Z,104.00
2018-05-16T04:28:22.304Z,104.00
2018-05-16T04:29:22.262Z,108.00
2018-05-16T04:30:22.206Z,100.00
2018-05-16T04:31:22.201Z,96.00
2018-05-16T04:32:22.112Z,88.00
2018-05-16T04:33:22.097Z,92.00
2018-05-16T04:34:22.023Z,100.00
2018-05-16T04:35:21.970Z,104.00
2018-05-16T04:36:21.925Z,112.00
2018-05-16T04:37:21.904Z,120.00
2018-05-16T04:38:21.822Z,120.00
2018-05-16T04:39:21.776Z,124.00
2018-05-16T04:40:21.727Z,120.00
2018-05-16T04:41:21.685Z,112.00
2018-05-16T04:42:21.668Z,100.00
2018-05-16T04:43:21.620Z,100.00
2018-05-16T04:44:21.544Z,108.00
2018-05-16T04:45:21.488Z,112.00
2018-05-16T04:46:21.483Z,136.00
2018-05-16T04:47:21.390Z,136.00
2018-05-16T04:48:21.343Z,152.00
2018-05-16T04:49:21.298Z,172.00
2018-05-16T04:50:21.247Z,152.00
2018-05-16T04:51:21.237Z,136.00
2018-05-16T04:52:21.157Z,136.00
2018-05-16T04:53:21.150Z,152.00
2018-05-16T04:54:21.100Z,160.00
2018-05-16T04:55:21.009Z,168.00
2018-05-16T04:56:20.965Z,188.00
2018-05-16T04:57:20.912Z,184.00
2018-05-16T04:58:20.872Z,168.00
2018-05-16T04:59:20.850Z,140.00
2018-05-16T05:00:20.771Z,120.00
2018-05-16T05:01:20.721Z,108.00
2018-05-16T05:02:20.713Z,84.00
2018-05-16T05:03:20.622Z,76.00
2018-05-16T05:04:20.575Z,72.00
2018-05-16T05:05:20.528Z,68.00
2018-05-16T05:06:20.487Z,72.00
2018-05-16T05:07:20.472Z,80.00
2018-05-16T05:08:20.399Z,76.00
2018-05-16T05:09:20.337Z,76.00
2018-05-16T05:10:20.286Z,84.00
2018-05-16T05:11:20.240Z,96.00
2018-05-16T05:12:20.234Z,128.00
2018-05-16T05:13:20.147Z,140.00
2018-05-16T05:14:20.099Z,128.00
2018-05-16T05:15:20.048Z,108.00
2018-05-16T05:16:20.005Z,100.00
2018-05-16T05:17:19.988Z,88.00
2018-05-16T05:18:20.010Z,76.00
2018-05-16T05:19:19.856Z,64.00
2018-05-16T05:20:19.806Z,68.00
2018-05-16T05:21:19.794Z,84.00
2018-05-16T05:22:19.752Z,104.00
2018-05-16T05:23:19.673Z,100.00
2018-05-16T05:24:19.620Z,96.00
2018-05-16T05:25:19.573Z,92.00
2018-05-16T05:26:19.523Z,88.00
2018-05-16T05:27:19.503Z,100.00
2018-05-16T05:28:19.425Z,120.00
2018-05-16T05:29:19.379Z,124.00
2018-05-16T05:30:19.393Z,152.00
2018-05-16T05:31:19.282Z,204.00
2018-05-16T05:32:19.264Z,248.00
2018-05-16T05:33:19.230Z,280.00
2018-05-16T05:34:19.136Z,316.00
2018-05-16T05:35:19.090Z,336.00
2018-05-16T05:36:19.042Z,356.00
2018-05-16T05:37:18.995Z,404.00
2018-05-16T05:38:18.995Z,456.00
2018-05-16T05:39:18.895Z,508.00
2018-05-16T05:40:18.849Z,524.00
2018-05-16T05:41:18.801Z,528.00
2018-05-16T05:42:18.755Z,508.00
2018-05-16T05:43:18.750Z,480.00
2018-05-16T05:44:18.704Z,484.00
2018-05-16T05:45:18.607Z,520.00
2018-05-16T05:46:18.562Z,532.00
2018-05-16T05:47:18.513Z,524.00
2018-05-16T05:48:18.469Z,548.00
2018-05-16T05:49:18.521Z,552.00
2018-05-16T05:50:18.369Z,540.00
2018-05-16T05:51:18.355Z,524.00
2018-05-16T05:52:18.273Z,500.00
2018-05-16T05:53:18.230Z,492.00
2018-05-16T05:54:18.178Z,532.00
2018-05-16T05:55:18.162Z,640.00
2018-05-16T05:56:18.082Z,720.00
2018-05-16T05:57:18.065Z,868.00
2018-05-16T05:58:17.985Z,896.00
2018-05-16T05:59:17.938Z,940.00
2018-05-16T06:00:17.924Z,964.00
2018-05-16T06:01:17.842Z,988.00
2018-05-16T06:02:17.793Z,1148.00
2018-05-16T06:03:17.754Z,1200.00
2018-05-16T06:04:17.697Z,1300.00
2018-05-16T06:05:17.766Z,1336.00
2018-05-16T06:06:17.606Z,1340.00
2018-05-16T06:07:17.553Z,1292.00
2018-05-16T06:08:17.512Z,1368.00
2018-05-16T06:09:17.462Z,1460.00
2018-05-16T06:10:17.443Z,1712.00
2018-05-16T06:11:17.363Z,1812.00
2018-05-16T06:12:17.318Z,1844.00
2018-05-16T06:13:17.267Z,1812.00
2018-05-16T06:14:17.220Z,1936.00
2018-05-16T06:15:17.210Z,1940.00
2018-05-16T06:16:17.126Z,1736.00
2018-05-16T06:17:17.102Z,1896.00
2018-05-16T06:18:17.040Z,1976.00
2018-05-16T06:19:16.986Z,2172.00
2018-05-16T06:20:16.967Z,2532.00
2018-05-16T06:21:16.895Z,2756.00
2018-05-16T06:22:16.840Z,2692.00
2018-05-16T06:23:16.828Z,2524.00
2018-05-16T06:24:16.747Z,2376.00
2018-05-16T06:25:16.710Z,2432.00
2018-05-16T06:26:16.652Z,2424.00
2018-05-16T06:27:16.768Z,2344.00
2018-05-16T06:28:16.618Z,2384.00
2018-05-16T06:29:16.512Z,2448.00
2018-05-16T06:30:16.464Z,2364.00
2018-05-16T06:31:16.416Z,2360.00
2018-05-16T06:32:16.373Z,2524.00
2018-05-16T06:33:16.363Z,2624.00
2018-05-16T06:34:16.273Z,2728.00
2018-05-16T06:35:16.228Z,2836.00
2018-05-16T06:36:16.188Z,2944.00
2018-05-16T06:37:16.142Z,2920.00
2018-05-16T06:38:16.120Z,2932.00
2018-05-16T06:39:16.113Z,2932.00
2018-05-16T06:40:15.994Z,2884.00
2018-05-16T06:41:15.952Z,2848.00
2018-05-16T06:42:15.931Z,2820.00
2018-05-16T06:43:15.853Z,2744.00
2018-05-16T06:44:15.811Z,2700.00
2018-05-16T06:45:15.817Z,2704.00
2018-05-16T06:46:15.736Z,2716.00
2018-05-16T06:47:15.667Z,2612.00
2018-05-16T06:48:15.617Z,2372.00
2018-05-16T06:49:15.647Z,2480.00
2018-05-16T06:50:15.589Z,2360.00
2018-05-16T06:51:15.482Z,2232.00
2018-05-16T06:52:15.431Z,2176.00
2018-05-16T06:53:15.388Z,2140.00
2018-05-16T06:54:15.381Z,1960.00
2018-05-16T06:55:15.293Z,1932.00
2018-05-16T06:56:15.244Z,1816.00
2018-05-16T06:57:15.199Z,1716.00
2018-05-16T06:58:15.150Z,1692.00
2018-05-16T06:59:15.136Z,1744.00
2018-05-16T07:00:15.099Z,1772.00
2018-05-16T07:01:15.018Z,1792.00
2018-05-16T07:02:14.970Z,1832.00
2018-05-16T07:03:14.923Z,1968.00
2018-05-16T07:04:14.874Z,2140.00
2018-05-16T07:05:14.858Z,2060.00
2018-05-16T07:06:14.789Z,2196.00
2018-05-16T07:07:14.747Z,2588.00
2018-05-16T07:08:14.684Z,2744.00
2018-05-16T07:09:14.645Z,2724.00
2018-05-16T07:10:14.624Z,3120.00
2018-05-16T07:11:14.548Z,3576.00
2018-05-16T07:12:14.497Z,4028.00
2018-05-16T07:13:14.485Z,4472.00
2018-05-16T07:14:14.403Z,4660.00
2018-05-16T07:15:14.392Z,4176.00
2018-05-16T07:16:14.316Z,3844.00
2018-05-16T07:17:14.276Z,4184.00
2018-05-16T07:18:14.253Z,4492.00
2018-05-16T07:19:14.170Z,5236.00
2018-05-16T07:20:14.128Z,5448.00
2018-05-16T07:21:14.080Z,5912.00
2018-05-16T07:22:14.032Z,5072.00
2018-05-16T07:23:14.019Z,5212.00
2018-05-16T07:24:13.982Z,4868.00
2018-05-16T07:25:13.895Z,5056.00
2018-05-16T07:26:13.849Z,5184.00
2018-05-16T07:27:13.801Z,5324.00
2018-05-16T07:28:13.800Z,5388.00
2018-05-16T07:29:13.742Z,5200.00
2018-05-16T07:30:13.664Z,4920.00
2018-05-16T07:31:13.660Z,5264.00
2018-05-16T07:32:13.573Z,5532.00
2018-05-16T07:33:13.526Z,5572.00
2018-05-16T07:34:13.479Z,5396.00
2018-05-16T07:35:13.437Z,5244.00
2018-05-16T07:36:13.421Z,6084.00
2018-05-16T07:37:13.344Z,6028.00
2018-05-16T07:38:13.300Z,6072.00
2018-05-16T07:39:13.285Z,5708.00
2018-05-16T07:40:13.343Z,5832.00
2018-05-16T07:41:13.263Z,5528.00
2018-05-16T07:42:13.120Z,5316.00
2018-05-16T07:43:13.071Z,4968.00
2018-05-16T07:44:13.028Z,5144.00
2018-05-16T07:45:13.014Z,5540.00
2018-05-16T07:46:12.969Z,5256.00
2018-05-16T07:47:13.070Z,4436.00
2018-05-16T07:48:12.846Z,4232.00
2018-05-16T07:49:12.804Z,3824.00
2018-05-16T07:50:12.766Z,5068.00
2018-05-16T07:51:12.823Z,5672.00
2018-05-16T07:52:12.699Z,5564.00
2018-05-16T07:53:12.620Z,5860.00
2018-05-16T07:54:12.680Z,5128.00
2018-05-16T07:55:12.526Z,5480.00
2018-05-16T07:56:12.483Z,5376.00
2018-05-16T07:57:12.439Z,5516.00
2018-05-16T07:58:12.430Z,5588.00
2018-05-16T07:59:12.350Z,5404.00
2018-05-16T08:00:12.345Z,5504.00
2018-05-16T08:01:12.259Z,5544.00
2018-05-16T08:02:12.217Z,5392.00
2018-05-16T08:03:12.271Z,5264.00
2018-05-16T08:04:12.135Z,5560.00
2018-05-16T08:05:12.127Z,5760.00
2018-05-16T08:06:12.034Z,5732.00
2018-05-16T08:07:11.993Z,5848.00
2018-05-16T08:08:11.943Z,5936.00
2018-05-16T08:09:11.900Z,6312.00
2018-05-16T08:10:11.897Z,6500.00
2018-05-16T08:11:11.807Z,5968.00
2018-05-16T08:12:11.769Z,6628.00
2018-05-16T08:13:11.721Z,7008.00
2018-05-16T08:14:11.688Z,5812.00
2018-05-16T08:15:11.676Z,5644.00
2018-05-16T08:16:11.592Z,5944.00
2018-05-16T08:17:11.541Z,5300.00
2018-05-16T08:18:11.496Z,4992.00
2018-05-16T08:19:11.456Z,4572.00
2018-05-16T08:20:11.439Z,4776.00
2018-05-16T08:21:11.400Z,5700.00
2018-05-16T08:22:11.317Z,5712.00
2018-05-16T08:23:11.277Z,5204.00
2018-05-16T08:24:11.260Z,4608.00
2018-05-16T08:25:11.185Z,3996.00
2018-05-16T08:26:11.139Z,3628.00
2018-05-16T08:27:11.097Z,3124.00
2018-05-16T08:28:11.101Z,3664.00
2018-05-16T08:29:11.007Z,3876.00
2018-05-16T08:30:10.972Z,3876.00
2018-05-16T08:31:10.958Z,4008.00
2018-05-16T08:32:10.877Z,4712.00
2018-05-16T08:33:10.866Z,5632.00
2018-05-16T08:34:10.787Z,4036.00
2018-05-16T08:35:10.742Z,4184.00
2018-05-16T08:36:10.697Z,4220.00
2018-05-16T08:37:10.653Z,4152.00
2018-05-16T08:38:10.643Z,3888.00
2018-05-16T08:39:10.563Z,6116.00
2018-05-16T08:40:10.559Z,5872.00
2018-05-16T08:41:10.473Z,5148.00
2018-05-16T08:42:10.430Z,4904.00
2018-05-16T08:43:10.383Z,4708.00
2018-05-16T08:44:10.375Z,4388.00
2018-05-16T08:45:10.339Z,3756.00
2018-05-16T08:46:10.254Z,3828.00
2018-05-16T08:47:10.214Z,3780.00
2018-05-16T08:48:10.163Z,3392.00
2018-05-16T08:49:10.121Z,3304.00
2018-05-16T08:50:10.115Z,3116.00
2018-05-16T08:51:10.031Z,3360.00
2018-05-16T08:52:09.988Z,4416.00
2018-05-16T08:53:09.945Z,4576.00
2018-05-16T08:54:09.900Z,4288.00
2018-05-16T08:55:09.893Z,4372.00
2018-05-16T08:56:09.819Z,3556.00
2018-05-16T08:57:09.777Z,3236.00
2018-05-16T08:58:09.721Z,3396.00
2018-05-16T08:59:09.678Z,3812.00
2018-05-16T09:00:09.671Z,4572.00
2018-05-16T09:01:09.684Z,4524.00
2018-05-16T09:02:09.545Z,3840.00
2018-05-16T09:03:09.516Z,3608.00
2018-05-16T09:04:09.493Z,3944.00
2018-05-16T09:05:09.450Z,3920.00
2018-05-16T09:06:09.368Z,4276.00
2018-05-16T09:07:09.329Z,4296.00
2018-05-16T09:08:09.279Z,4860.00
2018-05-16T09:09:09.237Z,5140.00
2018-05-16T09:10:09.229Z,4440.00
2018-05-16T09:11:09.162Z,3696.00
2018-05-16T09:12:09.106Z,3284.00
2018-05-16T09:13:09.064Z,2808.00
2018-05-16T09:14:09.022Z,2444.00
2018-05-16T09:15:09.012Z,2476.00
2018-05-16T09:16:08.928Z,2492.00
2018-05-16T09:17:08.974Z,2744.00
2018-05-16T09:18:08.840Z,3108.00
2018-05-16T09:19:08.807Z,4656.00
2018-05-16T09:20:08.802Z,5872.00
2018-05-16T09:21:08.719Z,7172.00
2018-05-16T09:22:08.668Z,7344.00
2018-05-16T09:23:08.628Z,7308.00
2018-05-16T09:24:08.580Z,7040.00
2018-05-16T09:25:08.654Z,7616.00
2018-05-16T09:26:08.488Z,7312.00
2018-05-16T09:27:08.477Z,5852.00
2018-05-16T09:28:08.401Z,4636.00
2018-05-16T09:29:08.360Z,3828.00
2018-05-16T09:30:08.313Z,3272.00
2018-05-16T09:31:08.301Z,2776.00
2018-05-16T09:32:08.274Z,2480.00
2018-05-16T09:33:08.186Z,2688.00
2018-05-16T09:34:08.140Z,2964.00
2018-05-16T09:35:08.097Z,3080.00
2018-05-16T09:36:08.053Z,3176.00
2018-05-16T09:37:08.045Z,3352.00
2018-05-16T09:38:08.010Z,3340.00
2018-05-16T09:39:07.925Z,4068.00
2018-05-16T09:40:07.879Z,4316.00
2018-05-16T09:41:07.844Z,4504.00
2018-05-16T09:42:07.821Z,4572.00
2018-05-16T09:43:07.792Z,4068.00
2018-05-16T09:44:07.706Z,4040.00
2018-05-16T09:45:07.671Z,4004.00
2018-05-16T09:46:07.622Z,3376.00
2018-05-16T09:47:07.581Z,2876.00
2018-05-16T09:48:07.589Z,2800.00
2018-05-16T09:49:07.493Z,2920.00
2018-05-16T09:50:07.444Z,2664.00
2018-05-16T09:51:07.404Z,2528.00
2018-05-16T09:52:07.360Z,2572.00
2018-05-16T09:53:07.347Z,2580.00
2018-05-16T09:54:07.286Z,2748.00
2018-05-16T09:55:07.231Z,2856.00
2018-05-16T09:56:07.223Z,2940.00
2018-05-16T09:57:07.143Z,2788.00
2018-05-16T09:58:07.110Z,2560.00
2018-05-16T09:59:07.098Z,2432.00
2018-05-16T10:00:07.017Z,2264.00
2018-05-16T10:01:07.030Z,2212.00
2018-05-16T10:02:06.934Z,2180.00
2018-05-16T10:03:06.881Z,2164.00
2018-05-16T10:04:06.845Z,2216.00
2018-05-16T10:05:06.801Z,2252.00
2018-05-16T10:06:06.784Z,2292.00
2018-05-16T10:07:06.716Z,2232.00
2018-05-16T10:08:06.665Z,2080.00
2018-05-16T10:09:06.625Z,2032.00
2018-05-16T10:10:06.578Z,2004.00
2018-05-16T10:11:06.575Z,1848.00
2018-05-16T10:12:06.531Z,1700.00
2018-05-16T10:13:06.449Z,1628.00
2018-05-16T10:14:06.402Z,1632.00
2018-05-16T10:15:06.412Z,1704.00
2018-05-16T10:16:06.318Z,1872.00
2018-05-16T10:17:06.335Z,1924.00
2018-05-16T10:18:06.229Z,1880.00
2018-05-16T10:19:06.183Z,1872.00
2018-05-16T10:20:06.207Z,1920.00
2018-05-16T10:21:06.127Z,1972.00
2018-05-16T10:22:06.083Z,2032.00
2018-05-16T10:23:06.009Z,2252.00
2018-05-16T10:24:05.964Z,2280.00
2018-05-16T10:25:05.923Z,2356.00
2018-05-16T10:26:05.915Z,2772.00
2018-05-16T10:27:05.830Z,2728.00
2018-05-16T10:28:05.785Z,3372.00
2018-05-16T10:29:05.745Z,5148.00
2018-05-16T10:30:05.699Z,5564.00
2018-05-16T10:31:05.689Z,5728.00
2018-05-16T10:32:05.643Z,5932.00
2018-05-16T10:33:05.571Z,6032.00
2018-05-16T10:34:05.530Z,6068.00
2018-05-16T10:35:05.483Z,6076.00
2018-05-16T10:36:05.445Z,5748.00
2018-05-16T10:37:05.438Z,4848.00
2018-05-16T10:38:05.356Z,3868.00
2018-05-16T10:39:05.311Z,3312.00
2018-05-16T10:40:05.264Z,2892.00
2018-05-16T10:41:05.231Z,2476.00
2018-05-16T10:42:05.212Z,2052.00
2018-05-16T10:43:05.136Z,1724.00
2018-05-16T10:44:05.129Z,1528.00
2018-05-16T10:45:05.056Z,1408.00
2018-05-16T10:46:05.008Z,1280.00
2018-05-16T10:47:04.993Z,1172.00
2018-05-16T10:48:04.919Z,1116.00
2018-05-16T10:49:04.912Z,1084.00
2018-05-16T10:50:04.835Z,1108.00
2018-05-16T10:51:04.795Z,1200.00
2018-05-16T10:52:04.759Z,1416.00
2018-05-16T10:53:04.743Z,1708.00
2018-05-16T10:54:04.660Z,1976.00
2018-05-16T10:55:04.620Z,2252.00
2018-05-16T10:56:04.575Z,2552.00
2018-05-16T10:57:04.532Z,2896.00
2018-05-16T10:58:04.532Z,3236.00
2018-05-16T10:59:04.443Z,3520.00
2018-05-16T11:00:04.449Z,5308.00
2018-05-16T11:01:04.360Z,5132.00
2018-05-16T11:02:04.317Z,3828.00
2018-05-16T11:03:04.273Z,5372.00
2018-05-16T11:04:04.237Z,4424.00
2018-05-16T11:05:04.239Z,4912.00
2018-05-16T11:06:04.183Z,6056.00
2018-05-16T11:07:04.104Z,6388.00
2018-05-16T11:08:04.061Z,6436.00
2018-05-16T11:09:04.014Z,6272.00
2018-05-16T11:10:03.971Z,4720.00
2018-05-16T11:11:04.296Z,4040.00
2018-05-16T11:12:03.919Z,6060.00
2018-05-16T11:13:03.844Z,6128.00
2018-05-16T11:14:03.800Z,5788.00
2018-05-16T11:15:03.759Z,4676.00
2018-05-16T11:16:03.729Z,4864.00
2018-05-16T11:17:03.704Z,5508.00
2018-05-16T11:18:03.641Z,4908.00
2018-05-16T11:19:03.593Z,5092.00
2018-05-16T11:20:03.557Z,4980.00
2018-05-16T11:21:03.506Z,3600.00
2018-05-16T11:22:03.495Z,3528.00
2018-05-16T11:23:03.427Z,3524.00
2018-05-16T11:24:03.412Z,3472.00
2018-05-16T11:25:03.343Z,3300.00
2018-05-16T11:26:03.315Z,2980.00
2018-05-16T11:27:03.295Z,2660.00
2018-05-16T11:28:03.218Z,2312.00
2018-05-16T11:29:03.171Z,2100.00
2018-05-16T11:30:03.135Z,1868.00
2018-05-16T11:31:03.114Z,1748.00
2018-05-16T11:32:03.082Z,1680.00
2018-05-16T11:33:03.016Z,1688.00
2018-05-16T11:34:02.961Z,1884.00
2018-05-16T11:35:02.935Z,2272.00
2018-05-16T11:36:02.913Z,2812.00
2018-05-16T11:37:02.844Z,4024.00
2018-05-16T11:38:02.828Z,4284.00
2018-05-16T11:39:02.754Z,3472.00
2018-05-16T11:40:02.713Z,3160.00
2018-05-16T11:41:02.704Z,3352.00
2018-05-16T11:42:02.629Z,3784.00
2018-05-16T11:43:02.604Z,3548.00
2018-05-16T11:44:02.547Z,2644.00
2018-05-16T11:45:02.508Z,2320.00
2018-05-16T11:46:02.500Z,2104.00
2018-05-16T11:47:02.422Z,2024.00
2018-05-16T11:48:02.380Z,2132.00
2018-05-16T11:49:02.335Z,2420.00
2018-05-16T11:50:02.309Z,2316.00
2018-05-16T11:51:02.293Z,2260.00
2018-05-16T11:52:02.217Z,2464.00
2018-05-16T11:53:02.207Z,2712.00
2018-05-16T11:54:02.174Z,3048.00
2018-05-16T11:55:02.083Z,3484.00
2018-05-16T11:56:02.044Z,3712.00
2018-05-16T11:57:02.036Z,3980.00
2018-05-16T11:58:02.008Z,4260.00
2018-05-16T11:59:01.918Z,4584.00
2018-05-16T12:00:01.881Z,5096.00
2018-05-16T12:01:01.844Z,4612.00
2018-05-16T12:02:01.797Z,5108.00
2018-05-16T12:03:01.787Z,4476.00
2018-05-16T12:04:01.719Z,4336.00
2018-05-16T12:05:01.669Z,4656.00
2018-05-16T12:06:01.628Z,4132.00
2018-05-16T12:07:01.617Z,4072.00
2018-05-16T12:08:01.581Z,4088.00
2018-05-16T12:09:01.520Z,4112.00
2018-05-16T12:10:01.492Z,4108.00
2018-05-16T12:11:01.450Z,4060.00
2018-05-16T12:12:01.379Z,3976.00
2018-05-16T12:13:01.332Z,3884.00
2018-05-16T12:14:01.314Z,3816.00
2018-05-16T12:15:01.361Z,3784.00
2018-05-16T12:16:01.210Z,3780.00
2018-05-16T12:17:01.174Z,3700.00
2018-05-16T12:18:01.163Z,3628.00
2018-05-16T12:19:01.082Z,3660.00
2018-05-16T12:20:01.039Z,3520.00
2018-05-16T12:21:01.045Z,3388.00
2018-05-16T12:22:00.955Z,3324.00
2018-05-16T12:23:00.920Z,3284.00
2018-05-16T12:24:00.872Z,3188.00
2018-05-16T12:25:00.834Z,3032.00
2018-05-16T12:26:00.823Z,2824.00
2018-05-16T12:27:00.788Z,2692.00
2018-05-16T12:28:00.722Z,2668.00
2018-05-16T12:29:00.784Z,2712.00
2018-05-16T12:30:00.632Z,2748.00
2018-05-16T12:31:00.590Z,2760.00